createdAt,value
2023-04-09T00:05:49.105Z,6.70
2023-04-09T00:15:51.666Z,8.47
2023-04-09T00:25:53.950Z,8.53
2023-04-09T00:35:56.556Z,8.70
2023-04-09T00:46:00.276Z,8.20
2023-04-09T00:56:03.867Z,8.20
2023-04-09T01:06:16.651Z,7.87
2023-04-09T01:16:22.601Z,9.07
2023-04-09T01:26:54.889Z,9.37
2023-04-09T01:37:01.365Z,8.13
2023-04-09T01:47:04.491Z,10.40
2023-04-09T01:57:06.788Z,9.43
2023-04-09T02:07:26.258Z,11.23
2023-04-09T02:17:28.499Z,10.70
2023-04-09T02:27:30.880Z,11.03
2023-04-09T02:37:33.251Z,11.77
2023-04-09T02:47:35.654Z,10.77
2023-04-09T02:57:37.993Z,10.23
2023-04-09T03:07:40.178Z,9.37
2023-04-09T03:17:42.462Z,8.70
2023-04-09T03:27:44.858Z,9.73
2023-04-09T03:37:47.572Z,10.40
2023-04-09T03:47:49.954Z,9.63
2023-04-09T03:57:52.279Z,9.03
2023-04-09T04:07:55.418Z,9.50
2023-04-09T04:17:57.672Z,11.10
2023-04-09T04:28:00.111Z,10.83
2023-04-09T04:38:02.386Z,10.07
2023-04-09T04:48:04.911Z,10.67
2023-04-09T04:58:07.264Z,11.43
2023-04-09T05:08:09.592Z,10.97
2023-04-09T05:18:11.945Z,10.60
2023-04-09T05:28:14.475Z,11.73
2023-04-09T05:38:16.875Z,9.93
2023-04-09T05:48:19.942Z,11.83
2023-04-09T05:58:22.380Z,12.70
2023-04-09T06:08:24.874Z,10.93
2023-04-09T06:18:27.686Z,12.70
2023-04-09T06:28:30.193Z,11.53
2023-04-09T06:38:32.860Z,13.33
2023-04-09T06:48:35.492Z,10.97
2023-04-09T06:58:37.821Z,13.60
2023-04-09T07:08:40.234Z,12.97
2023-04-09T07:18:42.980Z,12.33
2023-04-09T07:28:45.799Z,11.60
2023-04-09T07:38:49.166Z,11.47
2023-04-09T07:48:51.856Z,11.47
2023-04-09T07:58:55.070Z,11.00
2023-04-09T08:08:57.925Z,10.90
2023-04-09T08:19:00.739Z,10.30
2023-04-09T08:29:03.175Z,10.37
2023-04-09T08:39:05.629Z,10.37
2023-04-09T08:49:10.000Z,9.70
2023-04-09T08:59:17.593Z,8.07
2023-04-09T09:09:19.954Z,7.47
2023-04-09T09:19:24.972Z,6.50
2023-04-09T09:29:28.609Z,5.37
2023-04-09T09:39:47.018Z,6.60
2023-04-09T09:49:53.052Z,5.27
2023-04-09T10:00:02.335Z,4.80
2023-04-09T10:10:07.925Z,3.63
2023-04-09T10:20:27.466Z,3.83
2023-04-09T10:30:34.095Z,3.10
2023-04-09T10:40:48.088Z,3.22
2023-04-09T10:50:52.987Z,3.33
2023-04-09T11:00:56.173Z,2.55
2023-04-09T11:11:02.220Z,3.37
2023-04-09T11:21:04.928Z,3.12
2023-04-09T11:31:07.634Z,2.58
2023-04-09T11:41:13.397Z,2.70
2023-04-09T11:51:16.154Z,2.80
2023-04-09T12:01:18.872Z,2.80
2023-04-09T12:11:21.354Z,2.45
2023-04-09T12:21:27.602Z,2.10
2023-04-09T12:31:30.301Z,2.40
2023-04-09T12:41:32.788Z,2.67
2023-04-09T12:51:35.531Z,1.90
2023-04-09T13:01:38.878Z,2.30
2023-04-09T13:11:42.771Z,2.35
2023-04-09T13:21:45.646Z,1.62
2023-04-09T13:31:48.278Z,2.00
2023-04-09T13:41:51.489Z,1.93
2023-04-09T13:51:54.171Z,2.28
2023-04-09T14:01:57.202Z,2.00
2023-04-09T14:11:59.931Z,2.00
2023-04-09T14:22:02.678Z,2.05
2023-04-09T14:32:05.191Z,2.10
2023-04-09T14:42:07.772Z,2.13
2023-04-09T14:52:10.353Z,2.20
2023-04-09T15:02:13.238Z,2.17
2023-04-09T15:12:15.939Z,1.80
2023-04-09T15:22:18.483Z,1.90
2023-04-09T15:32:21.884Z,2.80
2023-04-09T15:42:24.289Z,2.03
2023-04-09T15:52:27.370Z,2.12
2023-04-09T16:02:30.239Z,2.70
2023-04-09T16:12:32.752Z,2.60
2023-04-09T16:22:35.600Z,2.50
2023-04-09T16:32:38.280Z,2.20
2023-04-09T16:42:41.322Z,3.30
2023-04-09T16:52:44.639Z,2.00
2023-04-09T17:02:47.256Z,2.37
2023-04-09T17:12:50.969Z,2.22
2023-04-09T17:22:53.748Z,1.90
2023-04-09T17:32:56.492Z,1.50
2023-04-09T17:42:59.034Z,2.15
2023-04-09T17:53:02.093Z,2.10
2023-04-09T18:03:05.036Z,2.08
2023-04-09T18:13:07.854Z,1.60
2023-04-09T18:23:10.628Z,1.60
2023-04-09T18:33:14.837Z,2.00
2023-04-09T18:43:17.695Z,2.15
2023-04-09T18:53:20.432Z,1.93
2023-04-09T19:03:24.193Z,2.03
2023-04-09T19:13:26.921Z,2.07
2023-04-09T19:23:30.163Z,2.23
2023-04-09T19:33:32.721Z,2.03
2023-04-09T19:43:36.023Z,2.27
2023-04-09T19:53:40.449Z,2.10
2023-04-09T20:03:43.127Z,4.50
2023-04-09T20:13:47.437Z,6.53
2023-04-09T20:23:49.689Z,8.07
2023-04-09T20:33:51.982Z,8.97
2023-04-09T20:43:54.465Z,9.03
2023-04-09T20:53:58.388Z,6.93
2023-04-09T21:04:01.054Z,6.40
2023-04-09T21:14:04.440Z,7.10
2023-04-09T21:24:06.913Z,4.30
2023-04-09T21:34:09.800Z,3.43
2023-04-09T21:44:12.542Z,3.97
2023-04-09T21:54:15.262Z,4.10
2023-04-09T22:04:17.927Z,3.40
2023-04-09T22:14:22.204Z,3.00
2023-04-09T22:24:27.340Z,5.50
2023-04-09T22:44:32.349Z,5.27
2023-04-09T22:54:34.895Z,9.30
2023-04-09T23:04:37.544Z,6.10
2023-04-09T23:14:39.857Z,4.70
2023-04-09T23:24:42.130Z,10.57
2023-04-09T23:34:44.473Z,6.83
2023-04-09T23:44:47.012Z,5.07
2023-04-09T23:54:53.641Z,3.87
